Time;durP1;ratioP1;P1;durP2;ratioP2;P2;SDS_P1;SDS_P2;PMS_P1;PMS_P2;Temp;Humidity;BMP_temperature;BMP_pressure;BME280_temperature;BME280_humidity;BME280_pressure;Samples;Min_cycle;Max_cycle;Signal;HPM_P1;HPM_P2
2022/09/27 00:01:40;;;;;;;21.40;16.23;;;;;;;12.90;85.73;99376.38;1758559;81;25925;-82
2022/09/27 00:04:06;;;;;;;25.32;17.75;;;;;;;12.91;85.76;99371.83;1758694;80;26160;-83
2022/09/27 00:06:33;;;;;;;24.37;19.45;;;;;;;12.91;85.78;99376.69;1759169;80;27610;-81
2022/09/27 00:08:59;;;;;;;25.52;17.20;;;;;;;12.93;85.90;99381.31;1759036;80;25964;-80
2022/09/27 00:11:38;;;;;;;19.07;17.02;;;;;;;12.94;86.17;99382.10;1757821;80;25827;-80
2022/09/27 00:14:06;;;;;;;22.80;17.65;;;;;;;12.96;86.67;99384.03;1757809;80;26235;-80
2022/09/27 00:16:36;;;;;;;23.52;17.10;;;;;;;12.96;87.20;99382.69;1712597;81;26110;-81
2022/09/27 00:19:16;;;;;;;20.20;16.80;;;;;;;12.97;87.26;99373.07;1722839;81;27614;-81
2022/09/27 00:21:44;;;;;;;22.90;17.27;;;;;;;12.98;87.41;99377.38;1722107;81;26359;-80
2022/09/27 00:24:19;;;;;;;24.15;17.07;;;;;;;13.00;87.57;99378.52;1756530;80;26259;-81
2022/09/27 00:26:47;;;;;;;19.02;15.68;;;;;;;13.00;87.67;99373.94;1757471;81;26226;-81
2022/09/27 00:29:16;;;;;;;19.10;15.93;;;;;;;13.01;87.75;99370.73;1723160;81;26098;-81
2022/09/27 00:31:43;;;;;;;22.22;15.85;;;;;;;13.03;87.78;99376.17;1715141;81;27536;-81
2022/09/27 00:34:21;;;;;;;24.70;17.15;;;;;;;13.03;87.83;99371.31;1708561;82;25300;-82
2022/09/27 00:36:48;;;;;;;18.67;15.53;;;;;;;13.05;87.85;99370.06;1708098;82;25793;-82
2022/09/27 00:39:16;;;;;;;21.00;16.40;;;;;;;13.06;87.76;99365.52;1706490;83;25741;-82
2022/09/27 00:41:42;;;;;;;17.80;15.45;;;;;;;13.07;87.83;99361.77;1711950;82;26032;-81
2022/09/27 00:44:32;;;;;;;18.23;15.55;;;;;;;13.06;87.79;99361.48;1680952;82;28293;-81
2022/09/27 00:47:25;;;;;;;17.40;15.03;;;;;;;13.05;87.71;99359.83;1707371;82;25929;-81
2022/09/27 00:50:00;;;;;;;24.30;16.35;;;;;;;13.05;87.54;99352.59;1733628;81;25897;-81
2022/09/27 00:52:35;;;;;;;20.43;15.32;;;;;;;13.05;87.24;99347.73;1714903;83;26490;-81
2022/09/27 00:55:10;;;;;;;17.30;15.32;;;;;;;13.03;87.05;99347.95;1723578;83;25999;-81
2022/09/27 00:57:37;;;;;;;16.48;13.85;;;;;;;12.99;86.94;99344.09;1723391;83;27608;-81
2022/09/27 01:00:11;;;;;;;18.62;15.08;;;;;;;12.99;86.81;99348.64;1733967;81;25745;-81
2022/09/27 01:02:42;;;;;;;16.65;14.15;;;;;;;12.96;86.58;99343.20;1732364;81;25824;-81
2022/09/27 01:05:11;;;;;;;18.92;15.10;;;;;;;12.94;86.45;99342.61;1723918;81;25785;-81
2022/09/27 01:07:37;;;;;;;18.65;14.60;;;;;;;12.91;86.34;99338.23;1706779;82;25877;-81
2022/09/27 01:10:05;;;;;;;18.48;15.40;;;;;;;12.88;86.32;99350.27;1722409;81;27691;-81
2022/09/27 01:12:58;;;;;;;21.30;15.35;;;;;;;12.87;86.39;99341.10;1712637;82;26521;-81
2022/09/27 01:15:43;;;;;;;17.85;14.25;;;;;;;12.85;86.18;99340.52;1690709;84;26396;-81
2022/09/27 01:18:41;;;;;;;18.60;15.48;;;;;;;12.81;86.05;99336.66;1724243;81;25968;-82
2022/09/27 01:21:48;;;;;;;19.10;14.98;;;;;;;12.77;85.94;99340.83;1721138;81;25915;-82
2022/09/27 01:24:25;;;;;;;19.10;15.15;;;;;;;12.67;85.94;99337.37;1725830;81;29125;-83
2022/09/27 01:27:27;;;;;;;18.98;15.50;;;;;;;12.65;86.05;99334.62;1722699;81;25304;-82
2022/09/27 01:30:21;;;;;;;17.92;14.47;;;;;;;12.64;86.07;99333.00;1723497;81;25294;-81
2022/09/27 01:33:23;;;;;;;16.30;13.72;;;;;;;12.61;85.95;99334.80;1655610;84;26393;-83
2022/09/27 01:36:29;;;;;;;16.17;14.00;;;;;;;12.53;85.82;99337.82;1657906;84;26034;-82
2022/09/27 01:39:45;;;;;;;16.80;12.58;;;;;;;12.46;85.90;99341.95;1689731;83;27471;-82
2022/09/27 01:42:49;;;;;;;14.50;12.13;;;;;;;12.42;86.00;99338.09;1699640;82;25879;-81
2022/09/27 01:45:31;;;;;;;16.10;13.00;;;;;;;12.36;85.96;99334.95;1705347;83;25780;-81
2022/09/27 01:48:16;;;;;;;13.15;11.75;;;;;;;12.34;85.91;99324.44;1708400;82;25837;-81
2022/09/27 01:51:10;;;;;;;13.15;11.38;;;;;;;12.33;85.96;99328.70;1723012;82;26112;-81
2022/09/27 01:53:56;;;;;;;13.03;11.73;;;;;;;12.32;86.04;99324.38;1735326;81;28237;-82
2022/09/27 01:56:43;;;;;;;15.35;11.60;;;;;;;12.30;86.27;99325.95;1710282;82;25332;-80
2022/09/27 01:59:16;;;;;;;16.50;12.33;;;;;;;12.28;86.42;99325.88;1732459;81;25896;-81
2022/09/27 02:01:49;;;;;;;17.05;14.13;;;;;;;12.29;86.74;99316.79;1706876;83;25871;-81
2022/09/27 02:04:21;;;;;;;;;;;;;;;12.29;87.29;99322.16;1706283;81;25784;-81
2022/09/27 02:07:04;;;;;;;21.25;15.60;;;;;;;12.28;87.81;99318.65;1700779;82;28320;-81
2022/09/27 02:09:44;;;;;;;23.07;17.37;;;;;;;12.29;88.06;99324.84;1732620;81;25851;-81
2022/09/27 02:12:20;;;;;;;24.25;16.90;;;;;;;12.31;88.42;99311.49;1705276;83;25674;-82
2022/09/27 02:14:53;;;;;;;26.17;18.98;;;;;;;12.34;88.68;99309.67;1691728;83;25831;-81
2022/09/27 02:17:31;;;;;;;30.15;19.37;;;;;;;12.35;88.80;99304.61;1735564;81;25858;-82
2022/09/27 02:20:25;;;;;;;30.37;21.20;;;;;;;12.38;88.90;99312.19;1691357;81;28456;-82
2022/09/27 02:23:10;;;;;;;35.75;23.73;;;;;;;12.40;89.32;99307.41;1714406;81;25920;-81
2022/09/27 02:25:51;;;;;;;37.23;23.38;;;;;;;12.40;89.70;99301.24;1699980;82;26527;-81
2022/09/27 02:28:29;;;;;;;39.27;24.82;;;;;;;12.40;90.00;99303.92;1723527;82;25974;-82
2022/09/27 02:30:56;;;;;;;57.17;24.72;;;;;;;12.40;90.18;99294.53;1696353;83;25966;-81
2022/09/27 02:33:50;;;;;;;50.05;24.70;;;;;;;12.43;90.46;99290.53;1723533;83;27486;-82
2022/09/27 02:36:16;;;;;;;41.42;23.15;;;;;;;12.45;90.49;99300.01;1723260;82;26128;-81
2022/09/27 02:38:44;;;;;;;55.67;23.42;;;;;;;12.48;90.51;99294.70;1710389;82;25849;-81
2022/09/27 02:41:14;;;;;;;68.02;23.65;;;;;;;12.48;90.60;99299.56;1717359;81;26424;-81
2022/09/27 02:43:44;;;;;;;59.95;25.40;;;;;;;12.45;90.53;99290.61;1760101;80;25773;-81
2022/09/27 02:46:32;;;;;;;42.30;24.75;;;;;;;12.38;90.53;99289.36;1757943;80;27431;-81
2022/09/27 02:49:32;;;;;;;62.27;23.10;;;;;;;12.36;90.56;99290.13;1758647;80;25797;-81
2022/09/27 02:52:39;;;;;;;39.48;23.65;;;;;;;12.31;90.57;99289.19;1754097;80;26388;-82
2022/09/27 02:55:19;;;;;;;50.10;22.52;;;;;;;12.24;90.67;99290.63;1757960;80;26119;-82
2022/09/27 02:58:23;;;;;;;37.40;22.02;;;;;;;12.24;90.78;99284.43;1697507;81;25884;-82
2022/09/27 03:01:24;;;;;;;34.48;22.93;;;;;;;12.26;90.83;99285.02;1703075;82;27752;-83
2022/09/27 03:04:16;;;;;;;30.88;22.45;;;;;;;12.27;90.89;99287.46;1672268;83;26110;-82
2022/09/27 03:06:45;;;;;;;35.92;21.80;;;;;;;12.29;90.79;99288.08;1707113;83;25857;-82
2022/09/27 03:09:21;;;;;;;42.48;22.48;;;;;;;12.29;90.76;99282.71;1702542;83;25650;-83
2022/09/27 03:11:48;;;;;;;33.73;21.17;;;;;;;12.30;90.75;99282.98;1709896;82;25923;-82
2022/09/27 03:14:14;;;;;;;43.80;23.47;;;;;;;12.30;90.71;99279.48;1722926;82;27515;-82
2022/09/27 03:16:43;;;;;;;36.73;22.30;;;;;;;12.30;90.65;99278.14;1721090;83;25807;-83
2022/09/27 03:19:11;;;;;;;64.10;22.77;;;;;;;12.30;90.64;99275.45;1703740;82;25941;-82
2022/09/27 03:21:42;;;;;;;40.15;20.25;;;;;;;12.31;90.69;99275.77;1647279;83;26420;-82
2022/09/27 03:24:09;;;;;;;38.30;19.85;;;;;;;12.28;90.62;99277.03;1691389;84;26568;-83
2022/09/27 03:26:35;;;;;;;29.23;20.90;;;;;;;12.27;90.58;99275.93;1706483;83;27486;-82
2022/09/27 03:29:02;;;;;;;35.75;21.33;;;;;;;12.26;90.66;99271.59;1757832;81;25814;-83
2022/09/27 03:31:29;;;;;;;47.43;21.65;;;;;;;12.24;90.71;99274.52;1758931;80;25791;-82
2022/09/27 03:34:03;;;;;;;35.08;22.00;;;;;;;12.22;90.72;99280.64;1719529;80;25931;-83
2022/09/27 03:36:29;;;;;;;28.75;20.65;;;;;;;12.22;90.82;99267.73;1752779;80;25767;-82
2022/09/27 03:38:56;;;;;;;36.13;21.80;;;;;;;12.24;90.86;99264.30;1759564;80;28239;-82
2022/09/27 03:41:22;;;;;;;39.15;22.40;;;;;;;12.21;90.84;99257.52;1758541;80;25880;-82
2022/09/27 03:43:49;;;;;;;43.10;22.10;;;;;;;12.20;90.95;99255.06;1758079;81;25838;-83
2022/09/27 03:46:17;;;;;;;31.80;23.02;;;;;;;12.22;90.99;99248.42;1756778;80;25918;-81
2022/09/27 03:48:43;;;;;;;42.15;22.65;;;;;;;12.23;91.07;99242.53;1758216;81;26165;-82
2022/09/27 03:51:11;;;;;;;36.60;21.70;;;;;;;12.25;91.09;99243.92;1758997;80;27484;-82
2022/09/27 03:53:38;;;;;;;49.18;20.85;;;;;;;12.25;91.05;99237.75;1758820;80;26056;-83
2022/09/27 03:56:05;;;;;;;31.60;23.42;;;;;;;12.24;91.09;99235.59;1718688;81;25852;-82
2022/09/27 03:58:31;;;;;;;50.15;22.73;;;;;;;12.24;91.03;99237.45;1719639;81;25786;-82
2022/09/27 04:00:58;;;;;;;43.35;21.73;;;;;;;12.24;91.08;99237.45;1722263;83;25812;-83
2022/09/27 04:03:25;;;;;;;44.42;22.07;;;;;;;12.23;91.06;99241.98;1721576;81;27457;-82
2022/09/27 04:06:11;;;;;;;39.45;19.82;;;;;;;12.20;91.08;99246.50;1756146;80;25759;-83
2022/09/27 04:08:39;;;;;;;36.58;20.75;;;;;;;12.21;91.23;99246.77;1759748;80;25742;-81
2022/09/27 04:11:06;;;;;;;50.67;21.07;;;;;;;12.22;91.21;99248.42;1761054;80;26149;-82
2022/09/27 04:13:32;;;;;;;35.68;19.60;;;;;;;12.23;91.26;99241.98;1759123;80;26533;-82
2022/09/27 04:15:59;;;;;;;60.28;23.92;;;;;;;12.23;91.18;99247.91;1762501;80;27443;-82
2022/09/27 04:18:43;;;;;;;50.48;22.27;;;;;;;12.23;91.24;99246.56;1725777;81;25919;-82
2022/09/27 04:21:15;;;;;;;69.55;22.10;;;;;;;12.21;91.26;99245.98;1707158;82;25907;-82
2022/09/27 04:23:43;;;;;;;57.10;22.65;;;;;;;12.20;91.37;99241.64;1725724;81;25827;-82
2022/09/27 04:26:12;;;;;;;64.65;23.00;;;;;;;12.20;91.40;99245.67;1757469;80;26033;-83
2022/09/27 04:28:46;;;;;;;43.87;21.62;;;;;;;12.17;91.46;99244.77;1756641;80;27476;-82
2022/09/27 04:31:13;;;;;;;30.72;21.62;;;;;;;12.15;91.58;99238.30;1757672;80;25799;-82
2022/09/27 04:33:50;;;;;;;35.95;22.32;;;;;;;12.15;91.70;99234.28;1734228;80;25394;-83
2022/09/27 04:36:27;;;;;;;39.83;22.30;;;;;;;12.16;91.68;99238.61;1760079;80;25812;-82
2022/09/27 04:39:09;;;;;;;44.10;22.55;;;;;;;12.19;91.81;99244.84;1754355;80;25825;-82
2022/09/27 04:41:39;;;;;;;40.17;23.60;;;;;;;12.22;91.85;99246.25;1760826;80;27662;-81
2022/09/27 04:44:05;;;;;;;36.63;22.82;;;;;;;12.22;91.87;99247.08;1756544;80;26179;-82
2022/09/27 04:46:32;;;;;;;30.82;21.42;;;;;;;12.23;92.00;99243.33;1755957;80;25873;-82
2022/09/27 04:49:00;;;;;;;57.38;22.32;;;;;;;12.24;92.05;99240.95;1756562;80;25712;-81
2022/09/27 04:51:27;;;;;;;49.98;21.68;;;;;;;12.25;92.02;99235.86;1761768;80;26352;-81
2022/09/27 04:53:57;;;;;;;40.10;23.25;;;;;;;12.25;91.97;99238.55;1756327;80;28051;-80
2022/09/27 04:56:25;;;;;;;31.85;22.27;;;;;;;12.21;92.03;99232.01;1759347;80;25884;-82
2022/09/27 04:58:52;;;;;;;33.28;23.50;;;;;;;12.20;92.10;99228.22;1757623;80;25759;-82
2022/09/27 05:01:19;;;;;;;33.98;23.45;;;;;;;12.20;92.26;99226.36;1755703;80;25844;-81
2022/09/27 05:03:50;;;;;;;51.02;25.02;;;;;;;12.19;92.33;99227.91;1750709;80;26206;-81
2022/09/27 05:06:16;;;;;;;42.93;23.60;;;;;;;12.20;92.53;99229.05;1756727;80;27455;-81
2022/09/27 05:08:43;;;;;;;36.53;24.23;;;;;;;12.20;92.58;99229.05;1756419;80;25803;-82
2022/09/27 05:11:11;;;;;;;38.60;23.90;;;;;;;12.21;92.67;99232.55;1756828;80;25793;-81
2022/09/27 05:13:38;;;;;;;41.40;24.05;;;;;;;12.20;92.82;99230.91;1755185;80;25808;-81
2022/09/27 05:16:06;;;;;;;45.23;24.40;;;;;;;12.20;93.00;99229.05;1756331;80;25999;-81
2022/09/27 05:18:51;;;;;;;50.98;24.57;;;;;;;12.21;93.15;99229.32;1758243;80;27386;-81
2022/09/27 05:21:28;;;;;;;55.15;25.68;;;;;;;12.21;93.33;99229.32;1706172;80;26572;-81
2022/09/27 05:23:54;;;;;;;50.30;25.75;;;;;;;12.18;93.39;99223.61;1757871;81;25802;-81
2022/09/27 05:26:20;;;;;;;63.60;23.65;;;;;;;12.18;93.61;99230.31;1758195;80;25853;-80
2022/09/27 05:28:48;;;;;;;45.33;25.23;;;;;;;12.18;93.82;99229.80;1759196;80;25715;-81
2022/09/27 05:31:15;;;;;;;98.87;69.40;;;;;;;12.21;93.99;99233.90;1717174;81;27528;-81
2022/09/27 05:33:42;;;;;;;65.30;30.40;;;;;;;12.23;94.05;99227.23;1687764;83;25915;-82
2022/09/27 05:36:19;;;;;;;65.57;46.10;;;;;;;12.25;94.08;99224.33;1712541;81;25751;-81
2022/09/27 05:38:46;;;;;;;91.95;68.47;;;;;;;12.28;94.24;99230.05;1714000;81;26462;-82
2022/09/27 05:41:13;;;;;;;56.80;39.10;;;;;;;12.28;94.28;99224.67;1716250;81;25903;-81
2022/09/27 05:43:39;;;;;;;81.32;55.80;;;;;;;12.30;94.14;99225.78;1723885;83;27452;-81
2022/09/27 05:46:05;;;;;;;53.33;29.92;;;;;;;12.29;94.08;99229.02;1721941;81;25936;-81
2022/09/27 05:48:32;;;;;;;56.40;39.08;;;;;;;12.28;94.08;99217.97;1720171;82;25872;-81
2022/09/27 05:51:01;;;;;;;84.60;59.67;;;;;;;12.27;94.13;99208.27;1730742;81;25749;-81
2022/09/27 05:53:27;;;;;;;42.73;24.90;;;;;;;12.24;94.06;99193.97;1736334;81;25986;-81
2022/09/27 05:55:54;;;;;;;84.72;63.20;;;;;;;12.20;94.12;99186.09;1720238;83;27448;-81
2022/09/27 05:58:22;;;;;;;47.75;25.23;;;;;;;12.14;94.19;99192.91;1750909;81;26059;-81
2022/09/27 06:00:50;;;;;;;44.53;21.15;;;;;;;12.06;94.39;99192.70;1758885;80;25893;-81
2022/09/27 06:03:39;;;;;;;42.60;25.68;;;;;;;12.05;94.67;99195.11;1669241;84;25879;-81
2022/09/27 06:06:14;;;;;;;41.55;29.45;;;;;;;12.02;94.75;99190.19;1672623;84;26079;-81
2022/09/27 06:08:48;;;;;;;77.67;33.98;;;;;;;12.01;94.99;99181.03;1714789;80;27712;-82
2022/09/27 06:11:16;;;;;;;45.83;27.45;;;;;;;12.01;95.12;99179.17;1761213;80;25376;-81
2022/09/27 06:13:43;;;;;;;51.13;22.80;;;;;;;11.98;94.96;99184.98;1736459;81;25725;-81
2022/09/27 06:16:12;;;;;;;42.40;21.20;;;;;;;11.98;95.30;99193.04;1747977;81;26406;-81
2022/09/27 06:18:41;;;;;;;40.78;20.97;;;;;;;11.99;95.34;99209.97;1733037;81;26433;-81
2022/09/27 06:21:09;;;;;;;33.53;19.65;;;;;;;12.00;95.46;99223.14;1700974;82;26888;-82
2022/09/27 06:23:36;;;;;;;43.75;19.05;;;;;;;12.00;95.53;99229.86;1706978;82;25884;-81
2022/09/27 06:26:07;;;;;;;53.05;22.10;;;;;;;11.97;95.33;99223.63;1695741;82;25974;-81
2022/09/27 06:28:35;;;;;;;43.48;25.97;;;;;;;12.00;95.43;99219.64;1734254;81;25767;-82
2022/09/27 06:31:07;;;;;;;49.80;23.60;;;;;;;12.02;95.46;99220.22;1713603;82;26191;-82
2022/09/27 06:33:41;;;;;;;39.53;22.40;;;;;;;12.04;95.55;99221.64;1709593;81;27470;-82
2022/09/27 06:36:08;;;;;;;40.90;20.15;;;;;;;12.07;95.56;99221.70;1738571;81;25738;-81
2022/09/27 06:38:37;;;;;;;33.42;19.17;;;;;;;12.04;95.33;99228.34;1706848;82;25966;-82
2022/09/27 06:41:17;;;;;;;30.65;18.67;;;;;;;12.01;95.22;99230.68;1707110;82;25949;-81
2022/09/27 06:44:02;;;;;;;35.10;20.50;;;;;;;11.99;95.45;99227.41;1707567;82;25788;-81
2022/09/27 06:46:47;;;;;;;30.68;19.07;;;;;;;11.95;95.31;99225.72;1705241;82;28293;-82
2022/09/27 06:49:24;;;;;;;33.23;19.00;;;;;;;11.95;95.62;99221.69;1673136;84;25980;-81
2022/09/27 06:51:51;;;;;;;36.20;19.40;;;;;;;11.94;95.45;99218.70;1711293;82;25650;-82
2022/09/27 06:54:18;;;;;;;38.23;20.20;;;;;;;11.95;95.54;99215.50;1708661;82;26227;-81
2022/09/27 06:56:47;;;;;;;33.05;20.95;;;;;;;11.96;95.72;99203.70;1708768;82;25957;-81
2022/09/27 07:02:17;;;;;;;30.43;19.50;;;;;;;12.04;96.15;99206.08;1702567;82;25808;-81
2022/09/27 07:04:46;;;;;;;34.25;19.10;;;;;;;12.04;96.11;99220.30;1668203;84;25435;-82
2022/09/27 07:07:14;;;;;;;23.22;17.02;;;;;;;12.05;96.05;99217.09;1701537;82;25748;-82
2022/09/27 07:09:42;;;;;;;29.50;17.67;;;;;;;12.05;95.98;99221.95;1704994;82;25775;-81
2022/09/27 07:12:12;;;;;;;31.85;18.73;;;;;;;12.04;95.94;99222.19;1676571;84;27459;-82
2022/09/27 07:14:36;;;;;;;33.45;20.40;;;;;;;12.00;95.56;99220.98;1704041;84;25785;-81
2022/09/27 07:17:04;;;;;;;33.35;20.97;;;;;;;11.98;95.51;99219.05;1675140;82;25863;-82
2022/09/27 07:19:32;;;;;;;31.68;18.12;;;;;;;11.95;95.45;99229.75;1704265;82;25479;-81
2022/09/27 07:21:58;;;;;;;25.52;17.95;;;;;;;11.93;95.53;99229.67;1705641;82;25825;-82
2022/09/27 07:24:25;;;;;;;28.70;16.02;;;;;;;11.94;95.75;99236.14;1704024;82;28374;-81
2022/09/27 07:26:51;;;;;;;22.55;14.70;;;;;;;11.93;95.44;99239.06;1702353;82;25879;-81
2022/09/27 07:29:19;;;;;;;18.02;14.10;;;;;;;11.89;95.31;99240.02;1704989;82;25300;-80
2022/09/27 07:31:47;;;;;;;16.42;13.58;;;;;;;11.90;95.64;99246.22;1722366;81;26410;-81
2022/09/27 07:34:17;;;;;;;17.00;13.58;;;;;;;11.95;96.14;99251.21;1730070;81;25882;-80
2022/09/27 07:36:43;;;;;;;18.62;13.50;;;;;;;12.02;96.07;99251.09;1706865;83;27447;-80
2022/09/27 07:39:10;;;;;;;18.98;13.15;;;;;;;12.08;95.91;99245.63;1683962;83;25780;-81
2022/09/27 07:41:39;;;;;;;17.98;13.75;;;;;;;12.13;95.81;99253.00;1723097;82;25339;-81
2022/09/27 07:44:06;;;;;;;22.27;15.20;;;;;;;12.18;95.79;99258.50;1707874;82;25800;-80
2022/09/27 07:46:34;;;;;;;21.02;14.60;;;;;;;12.21;95.75;99258.85;1725348;81;25776;-80
2022/09/27 07:49:09;;;;;;;19.85;15.38;;;;;;;12.23;95.57;99254.63;1720122;83;27103;-80
2022/09/27 07:51:37;;;;;;;20.92;15.72;;;;;;;12.25;95.81;99247.95;1707570;82;25922;-80
2022/09/27 07:54:05;;;;;;;20.68;14.98;;;;;;;12.33;96.04;99242.78;1688497;84;25804;-81
2022/09/27 07:56:36;;;;;;;;;;;;;;;12.41;96.16;99246.47;1759687;81;26105;-81
2022/09/27 07:59:04;;;;;;;22.90;15.88;;;;;;;12.48;96.03;99243.67;1755066;80;25752;-82
2022/09/27 08:01:30;;;;;;;24.60;17.23;;;;;;;12.52;96.13;99242.16;1688978;83;27551;-80
2022/09/27 08:03:57;;;;;;;22.80;16.23;;;;;;;12.51;95.58;99234.62;1679075;83;26084;-81
2022/09/27 08:06:24;;;;;;;22.15;16.45;;;;;;;12.51;95.67;99233.83;1722256;81;26432;-81
2022/09/27 08:08:52;;;;;;;48.42;43.30;;;;;;;12.56;95.97;99229.90;1759843;80;26115;-81
2022/09/27 08:11:19;;;;;;;28.23;20.85;;;;;;;12.57;95.89;99224.31;1758944;80;25760;-83
2022/09/27 08:13:48;;;;;;;26.07;19.70;;;;;;;12.58;95.76;99225.11;1756783;80;27632;-82
2022/09/27 08:16:15;;;;;;;24.12;17.45;;;;;;;12.57;95.94;99229.69;1756983;80;25826;-81
2022/09/27 08:19:00;;;;;;;29.12;18.55;;;;;;;12.54;95.88;99224.77;1757682;80;25827;-81
2022/09/27 08:21:40;;;;;;;25.97;18.40;;;;;;;12.54;96.18;99229.31;1717745;80;26124;-81
2022/09/27 08:24:11;;;;;;;28.50;20.52;;;;;;;12.54;96.49;99215.88;1752366;80;25851;-82
2022/09/27 08:26:45;;;;;;;29.57;20.25;;;;;;;12.55;96.47;99213.50;1731706;80;27490;-81
2022/09/27 08:29:13;;;;;;;28.52;22.60;;;;;;;12.55;96.72;99210.82;1758670;80;25854;-82
2022/09/27 08:31:42;;;;;;;24.00;18.02;;;;;;;12.60;96.99;99215.77;1719073;81;25301;-81
2022/09/27 08:34:08;;;;;;;26.17;17.73;;;;;;;12.62;97.02;99212.84;1718189;82;25842;-82
2022/09/27 08:36:36;;;;;;;26.73;18.42;;;;;;;12.65;97.00;99215.08;1755522;80;25838;-81
2022/09/27 08:39:04;;;;;;;25.50;18.27;;;;;;;12.66;97.04;99218.86;1769143;80;27528;-80
2022/09/27 08:41:52;;;;;;;28.42;18.30;;;;;;;12.68;97.23;99214.63;1719857;82;25871;-82
2022/09/27 08:45:09;;;;;;;33.45;22.07;;;;;;;12.73;97.38;99218.75;1731693;81;25736;-81
2022/09/27 08:47:53;;;;;;;29.98;21.12;;;;;;;12.79;97.49;99221.32;1718246;83;26442;-80
2022/09/27 08:50:41;;;;;;;30.45;20.62;;;;;;;12.80;97.63;99216.77;1722836;81;25820;-80
2022/09/27 08:53:36;;;;;;;34.58;22.00;;;;;;;12.83;97.77;99219.00;1701362;83;27453;-79
2022/09/27 08:56:07;;;;;;;36.63;25.77;;;;;;;12.88;97.87;99215.89;1758226;80;25854;-79
2022/09/27 08:58:46;;;;;;;33.50;24.12;;;;;;;12.93;97.98;99222.73;1757350;80;25743;-79
2022/09/27 09:01:18;;;;;;;37.25;23.92;;;;;;;12.97;97.97;99228.45;1747902;80;26144;-79
2022/09/27 09:03:56;;;;;;;33.33;23.00;;;;;;;13.00;98.05;99234.16;1752603;80;25776;-78
2022/09/27 09:06:31;;;;;;;31.60;22.52;;;;;;;13.05;98.08;99232.14;1756418;80;27519;-78
2022/09/27 09:09:43;;;;;;;38.20;25.17;;;;;;;13.10;97.91;99240.33;1685230;83;25780;-78
2022/09/27 09:12:47;;;;;;;36.40;23.50;;;;;;;13.13;97.87;99233.94;1692850;83;26428;-79
2022/09/27 09:15:53;;;;;;;35.55;23.98;;;;;;;13.21;98.06;99231.95;1761355;80;25727;-79
2022/09/27 09:18:19;;;;;;;37.98;24.43;;;;;;;13.28;97.95;99232.66;1729378;81;25827;-79
2022/09/27 09:21:37;;;;;;;35.35;24.37;;;;;;;13.32;97.89;99224.39;1705512;82;28205;-78
2022/09/27 09:24:25;;;;;;;37.13;24.57;;;;;;;13.37;97.80;99222.61;1638698;86;25439;-78
2022/09/27 09:27:03;;;;;;;34.05;25.10;;;;;;;13.41;97.69;99221.08;1659033;85;26567;-78
2022/09/27 09:30:09;;;;;;;36.17;25.60;;;;;;;13.49;97.87;99215.87;1692971;82;25793;-80
2022/09/27 09:32:49;;;;;;;91.42;65.40;;;;;;;13.54;97.44;99218.12;1701487;83;26017;-78
2022/09/27 09:35:25;;;;;;;102.17;68.10;;;;;;;13.61;97.63;99216.11;1720996;83;27512;-79
2022/09/27 09:38:05;;;;;;;44.48;32.55;;;;;;;13.69;97.24;99209.52;1714380;83;25942;-77
2022/09/27 09:40:43;;;;;;;131.25;92.22;;;;;;;13.72;96.81;99203.67;1713710;81;25872;-79
2022/09/27 09:43:30;;;;;;;45.03;32.33;;;;;;;13.75;96.62;99209.37;1720264;83;25849;-79
2022/09/27 09:46:23;;;;;;;62.58;47.80;;;;;;;13.78;96.46;99210.25;1706424;82;26489;-79
2022/09/27 09:48:58;;;;;;;60.40;50.95;;;;;;;13.83;96.66;99204.15;1706465;83;27631;-79
2022/09/27 09:51:36;;;;;;;40.05;31.05;;;;;;;13.91;96.76;99207.27;1719658;81;25937;-79
2022/09/27 09:54:09;;;;;;;36.50;32.38;;;;;;;14.00;96.65;99210.38;1719388;81;25837;-80
2022/09/27 09:56:52;;;;;;;36.58;29.52;;;;;;;14.04;95.74;99206.66;1736060;81;26387;-78
2022/09/27 09:59:37;;;;;;;47.27;37.70;;;;;;;14.12;95.99;99200.87;1708945;83;25905;-78
2022/09/27 10:02:29;;;;;;;41.45;33.98;;;;;;;14.16;95.74;99200.15;1709816;82;27384;-78
2022/09/27 10:04:57;;;;;;;32.98;24.75;;;;;;;14.21;95.60;99202.12;1703819;82;25801;-80
2022/09/27 10:07:25;;;;;;;34.05;24.65;;;;;;;14.22;94.93;99197.03;1704307;84;25963;-79
2022/09/27 10:09:56;;;;;;;34.78;28.12;;;;;;;14.23;94.87;99191.91;1706492;82;25742;-79
2022/09/27 10:12:35;;;;;;;30.45;22.13;;;;;;;14.29;95.24;99197.17;1681708;82;26651;-79
2022/09/27 10:15:05;;;;;;;28.42;21.12;;;;;;;14.35;95.16;99194.05;1702867;83;27482;-79
2022/09/27 10:17:39;;;;;;;26.83;21.60;;;;;;;14.41;94.85;99189.81;1704469;82;25844;-79
2022/09/27 10:20:10;;;;;;;25.05;21.07;;;;;;;14.47;94.56;99187.52;1680856;84;26476;-79
2022/09/27 10:22:42;;;;;;;26.73;19.60;;;;;;;14.53;94.46;99177.62;1754441;80;26390;-78
2022/09/27 10:25:10;;;;;;;27.62;19.55;;;;;;;14.57;93.86;99178.75;1732201;81;25747;-80
2022/09/27 10:27:54;;;;;;;23.20;18.42;;;;;;;14.58;93.76;99179.05;1724601;81;27503;-79
2022/09/27 10:30:32;;;;;;;25.00;18.62;;;;;;;14.60;93.17;99175.58;1722645;81;25795;-80
2022/09/27 10:33:04;;;;;;;27.77;21.95;;;;;;;14.60;92.89;99178.27;1694597;81;25820;-80
2022/09/27 10:35:45;;;;;;;23.38;20.08;;;;;;;14.61;92.53;99173.15;1722055;81;26552;-79
2022/09/27 10:38:27;;;;;;;31.62;26.73;;;;;;;14.62;92.62;99166.71;1713181;82;26462;-78
2022/09/27 10:41:15;;;;;;;28.30;22.00;;;;;;;14.65;92.34;99165.67;1705389;83;27626;-80
2022/09/27 10:43:42;;;;;;;30.57;21.00;;;;;;;14.66;92.35;99155.72;1700921;82;25360;-80
2022/09/27 10:46:35;;;;;;;31.42;23.32;;;;;;;14.68;92.33;99156.28;1707301;82;25874;-78
2022/09/27 10:49:35;;;;;;;33.98;24.15;;;;;;;14.74;92.81;99150.42;1707264;83;25803;-79
2022/09/27 10:52:07;;;;;;;31.67;23.73;;;;;;;14.77;92.35;99148.59;1683657;83;25905;-78
2022/09/27 10:54:37;;;;;;;29.85;24.55;;;;;;;14.81;92.51;99154.58;1724041;81;27437;-78
2022/09/27 10:57:25;;;;;;;24.60;21.10;;;;;;;14.87;92.40;99152.76;1686552;81;25787;-78
2022/09/27 11:00:06;;;;;;;21.23;18.32;;;;;;;14.91;92.61;99153.36;1723417;81;26433;-78
2022/09/27 11:02:36;;;;;;;20.48;16.10;;;;;;;15.02;92.62;99147.04;1710339;81;25771;-79
2022/09/27 11:05:16;;;;;;;22.10;18.45;;;;;;;15.04;91.23;99144.91;1755717;80;25799;-80
2022/09/27 11:07:55;;;;;;;21.00;16.93;;;;;;;15.05;90.69;99142.51;1755546;80;27427;-78
2022/09/27 11:10:35;;;;;;;18.15;15.72;;;;;;;15.07;90.59;99139.55;1748638;80;25919;-79
2022/09/27 11:13:16;;;;;;;19.20;17.05;;;;;;;15.09;90.14;99141.46;1760088;80;25691;-79
2022/09/27 11:16:10;;;;;;;20.15;16.35;;;;;;;15.09;90.20;99133.38;1692314;83;25798;-79
2022/09/27 11:19:08;;;;;;;22.70;16.80;;;;;;;15.16;90.37;99127.27;1703998;82;25982;-78
2022/09/27 11:22:09;;;;;;;33.15;27.80;;;;;;;15.24;90.50;99122.23;1703500;82;28263;-79
2022/09/27 11:24:50;;;;;;;47.15;35.43;;;;;;;15.27;90.00;99119.55;1721710;81;25992;-79
2022/09/27 11:27:49;;;;;;;31.17;25.45;;;;;;;15.32;90.78;99110.98;1704921;82;25764;-80
2022/09/27 11:30:22;;;;;;;30.32;25.80;;;;;;;15.35;90.16;99106.98;1704988;83;25871;-79
2022/09/27 11:33:16;;;;;;;24.50;19.15;;;;;;;15.33;89.28;99106.42;1691195;83;25347;-79
2022/09/27 11:36:04;;;;;;;18.60;16.60;;;;;;;15.29;88.64;99112.83;1720886;81;27458;-79
2022/09/27 11:39:01;;;;;;;19.92;17.82;;;;;;;15.23;88.39;99111.16;1705362;82;25734;-78
2022/09/27 11:42:01;;;;;;;31.05;26.93;;;;;;;15.23;88.31;99117.08;1716653;81;25903;-80
2022/09/27 11:44:59;;;;;;;27.17;23.25;;;;;;;15.19;87.65;99120.00;1688037;83;25813;-79
2022/09/27 11:47:48;;;;;;;25.68;22.87;;;;;;;15.12;87.75;99120.19;1694181;83;25890;-81
2022/09/27 11:51:04;;;;;;;22.07;19.65;;;;;;;15.09;87.72;99120.71;1730231;81;28291;-79
2022/09/27 11:54:09;;;;;;;29.75;26.52;;;;;;;15.08;87.75;99114.20;1706952;82;25840;-80
2022/09/27 11:56:44;;;;;;;42.40;37.80;;;;;;;15.09;87.83;99114.49;1760812;80;25875;-80
2022/09/27 11:59:57;;;;;;;52.05;44.55;;;;;;;15.08;87.59;99115.02;1752809;80;26201;-80
2022/09/27 12:03:01;;;;;;;29.07;23.85;;;;;;;15.12;88.14;99106.70;1720307;81;25767;-79